Map

Track Data

SID SEASON NUMBER BASIN SUBBASIN NAME ISO_TIME NATURE LAT LON WMO_WIND WMO_PRES WMO_AGENCY TRACK_TYPE DIST2LAND LANDFALL IFLAG USA_AGENCY USA_ATCF_ID USA_LAT USA_LON USA_RECORD USA_STATUS USA_WIND USA_PRES USA_SSHS USA_R34_NE USA_R34_SE USA_R34_SW USA_R34_NW USA_R50_NE USA_R50_SE USA_R50_SW USA_R50_NW USA_R64_NE USA_R64_SE USA_R64_SW USA_R64_NW USA_POCI USA_ROCI USA_RMW USA_EYE TOKYO_LAT TOKYO_LON TOKYO_GRADE TOKYO_WIND TOKYO_PRES TOKYO_R50_DIR TOKYO_R50_LONG TOKYO_R50_SHORT TOKYO_R30_DIR TOKYO_R30_LONG TOKYO_R30_SHORT TOKYO_LAND CMA_LAT CMA_LON CMA_CAT CMA_WIND CMA_PRES HKO_LAT HKO_LON HKO_CAT HKO_WIND HKO_PRES NEWDELHI_LAT NEWDELHI_LON NEWDELHI_GRADE NEWDELHI_WIND NEWDELHI_PRES NEWDELHI_CI NEWDELHI_DP NEWDELHI_POCI REUNION_LAT REUNION_LON REUNION_TYPE REUNION_WIND REUNION_PRES REUNION_TNUM REUNION_CI REUNION_RMW REUNION_R34_NE REUNION_R34_SE REUNION_R34_SW REUNION_R34_NW REUNION_R50_NE REUNION_R50_SE REUNION_R50_SW REUNION_R50_NW REUNION_R64_NE REUNION_R64_SE REUNION_R64_SW REUNION_R64_NW BOM_LAT BOM_LON BOM_TYPE BOM_WIND BOM_PRES BOM_TNUM BOM_CI BOM_RMW BOM_R34_NE BOM_R34_SE BOM_R34_SW BOM_R34_NW BOM_R50_NE BOM_R50_SE BOM_R50_SW BOM_R50_NW BOM_R64_NE BOM_R64_SE BOM_R64_SW BOM_R64_NW BOM_ROCI BOM_POCI BOM_EYE BOM_POS_METHOD BOM_PRES_METHOD NADI_LAT NADI_LON NADI_CAT NADI_WIND NADI_PRES WELLINGTON_LAT WELLINGTON_LON WELLINGTON_WIND WELLINGTON_PRES DS824_LAT DS824_LON DS824_STAGE DS824_WIND DS824_PRES TD9636_LAT TD9636_LON TD9636_STAGE TD9636_WIND TD9636_PRES TD9635_LAT TD9635_LON TD9635_WIND TD9635_PRES TD9635_ROCI NEUMANN_LAT NEUMANN_LON NEUMANN_CLASS NEUMANN_WIND NEUMANN_PRES MLC_LAT MLC_LON MLC_CLASS MLC_WIND MLC_PRES USA_GUST BOM_GUST BOM_GUST_PER REUNION_GUST REUNION_GUST_PER USA_SEAHGT USA_SEARAD_NE USA_SEARAD_SE USA_SEARAD_SW USA_SEARAD_NW STORM_SPEED STORM_DIR
1924319N11089 1924 51 NI BB NOT_NAMED 1924-11-14 00:00:00 TS 10.8000 88.8000 main 824 824 _________O____ -1 10.8000 88.8000 TC 30 0 0
1924319N11089 1924 51 NI BB NOT_NAMED 1924-11-14 03:00:00 TS 10.8000 88.8000 main 824 824 _________PO___ -1 10.8000 88.8000 TC 30 10.8000 88.8000 1 0 0
1924319N11089 1924 51 NI BB NOT_NAMED 1924-11-14 06:00:00 TS 10.8069 88.7882 main 824 824 _________OP___ -1 10.8000 88.8000 TC 30 10.8173 88.7704 1 0 0
1924319N11089 1924 51 NI BB NOT_NAMED 1924-11-14 09:00:00 TS 10.8118 88.7797 main 824 824 _________PP___ -1 10.8000 88.8000 TC 30 10.8276 88.7527 1 0 0
1924319N11089 1924 51 NI BB NOT_NAMED 1924-11-14 12:00:00 TS 10.8121 88.7793 main 824 824 _________OP___ -1 10.8000 88.8000 TC 30 10.8242 88.7586 1 0 0
1924319N11089 1924 51 NI BB NOT_NAMED 1924-11-14 15:00:00 TS 10.8000 88.8000 main 824 824 _________PO___ -1 10.8000 88.8000 TC 30 10.8000 88.8000 1 1 120
1924319N11089 1924 51 NI BB NOT_NAMED 1924-11-14 18:00:00 TS 10.7775 88.8384 main 824 817 _________OP___ -1 10.8000 88.8000 TC 30 10.7551 88.8769 1 1 120
1924319N11089 1924 51 NI BB NOT_NAMED 1924-11-14 21:00:00 TS 10.7435 88.8972 main 824 817 _________PP___ -1 10.7699 88.8524 TC 30 10.7170 88.9419 1 0 116
1924319N11089 1924 51 NI BB NOT_NAMED 1924-11-15 00:00:00 TS 10.7603 88.8680 main 817 817 _________OP___ -1 10.8000 88.8000 TC 30 10.7205 88.9360 1 3 300
1924319N11089 1924 51 NI BB NOT_NAMED 1924-11-15 03:00:00 TS 10.8737 88.6699 main 824 808 _________PO___ -1 10.9474 88.5399 TC 33 10.8000 88.8000 1 7 299
1924319N11089 1924 51 NI BB NOT_NAMED 1924-11-15 06:00:00 TS 11.0882 88.2648 main 813 767 _________OP___ -1 11.2000 88.1000 TC 37 10.9764 88.4295 1 11 298
1924319N11089 1924 51 NI BB NOT_NAMED 1924-11-15 09:00:00 TS 11.3794 87.7167 main 767 735 _________PP___ -1 11.5278 87.5002 TC 41 11.2311 87.9331 1 13 300
1924319N11089 1924 51 NI BB NOT_NAMED 1924-11-15 12:00:00 TS 11.7226 87.1476 main 725 700 _________OP___ -1 11.9000 86.9000 TC 45 11.5452 87.3951 1 12 305
1924319N11089 1924 51 NI BB NOT_NAMED 1924-11-15 15:00:00 TS 12.0674 86.6949 main 691 644 _________PO___ -1 12.2348 86.4898 TC 45 11.9000 86.9000 3 11 314
1924319N11089 1924 51 NI BB NOT_NAMED 1924-11-15 18:00:00 TS 12.4502 86.3636 main 636 581 _________OP___ -1 12.6000 86.2000 TC 45 12.3003 86.5272 3 10 325
1924319N11089 1924 51 NI BB NOT_NAMED 1924-11-15 21:00:00 TS 12.9048 86.0853 main 581 534 _________PP___ -1 13.0800 85.9550 TC 45 12.7297 86.2155 3 10 332
1924319N11089 1924 51 NI BB NOT_NAMED 1924-11-16 00:00:00 TS 13.3221 85.8855 main 534 504 _________OP___ -1 13.5000 85.8000 TC 45 13.1442 85.9710 3 8 335
1924319N11089 1924 51 NI BB NOT_NAMED 1924-11-16 03:00:00 TS 13.5937 85.7599 main 504 481 _________PO___ -1 13.6875 85.7199 TC 45 13.5000 85.8000 3 5 338
1924319N11089 1924 51 NI BB NOT_NAMED 1924-11-16 06:00:00 TS 13.7677 85.7013 main 481 473 _________OP___ -1 13.8000 85.7000 TC 45 13.7354 85.7026 3 4 347
1924319N11089 1924 51 NI BB NOT_NAMED 1924-11-16 09:00:00 TS 13.9511 85.6834 main 466 459 _________PP___ -1 13.9925 85.6925 TC 45 13.9098 85.6743 3 4 356
1924319N11089 1924 51 NI BB NOT_NAMED 1924-11-16 12:00:00 TS 14.1271 85.6920 main 459 446 _________OP___ -1 14.2000 85.7000 TC 45 14.0542 85.6840 3 4 3
1924319N11089 1924 51 NI BB NOT_NAMED 1924-11-16 15:00:00 TS 14.3000 85.7037 main 446 433 _________PO___ -1 14.4000 85.7075 TC 45 14.2000 85.7000 3 4 0
1924319N11089 1924 51 NI BB NOT_NAMED 1924-11-16 18:00:00 TS 14.4903 85.6895 main 433 420 _________OP___ -1 14.6000 85.7000 TC 45 14.3806 85.6790 3 4 354
1924319N11089 1924 51 NI BB NOT_NAMED 1924-11-16 21:00:00 TS 14.6775 85.6575 main 420 396 _________PP___ -1 14.7850 85.6575 TC 45 14.5700 85.6574 3 4 350
1924319N11089 1924 51 NI BB NOT_NAMED 1924-11-17 00:00:00 TS 14.8872 85.6161 main 396 379 _________OP___ -1 15.0000 85.6000 TC 45 14.7744 85.6321 3 5 351
1924319N11089 1924 51 NI BB NOT_NAMED 1924-11-17 03:00:00 TS 15.1462 85.5750 main 379 347 _________PO___ -1 15.2925 85.5500 TC 45 15.0000 85.6000 3 5 350
1924319N11089 1924 51 NI BB NOT_NAMED 1924-11-17 06:00:00 TS 15.4247 85.5286 main 347 324 _________OP___ -1 15.6000 85.5000 TC 45 15.2494 85.5572 3 6 351
1924319N11089 1924 51 NI BB NOT_NAMED 1924-11-17 09:00:00 TS 15.6850 85.4787 main 324 300 _________PP___ -1 15.8500 85.4500 TC 45 15.5200 85.5075 3 5 350
1924319N11089 1924 51 NI BB NOT_NAMED 1924-11-17 12:00:00 TS 15.9528 85.4270 main 292 272 _________OP___ -1 16.1000 85.4000 TC 45 15.8056 85.4541 3 6 350
1924319N11089 1924 51 NI BB NOT_NAMED 1924-11-17 15:00:00 TS 16.2463 85.3750 main 272 238 _________PO___ -1 16.3925 85.3500 TC 45 16.1000 85.4000 3 6 351
1924319N11089 1924 51 NI BB NOT_NAMED 1924-11-17 18:00:00 TS 16.5545 85.3230 main 228 201 _________OP___ -1 16.7000 85.3000 TC 45 16.4091 85.3460 3 6 350
1924319N11089 1924 51 NI BB NOT_NAMED 1924-11-17 21:00:00 TS 16.8687 85.2675 main 201 177 _________PP___ -1 17.0150 85.2425 TC 45 16.7225 85.2926 3 6 351
1924319N11089 1924 51 NI BB NOT_NAMED 1924-11-18 00:00:00 TS 17.1623 85.2214 main 169 153 _________OP___ -1 17.3000 85.2000 TC 45 17.0247 85.2429 3 5 353
1924319N11089 1924 51 NI BB NOT_NAMED 1924-11-18 03:00:00 TS 17.4075 85.2000 main 153 138 _________PO___ -1 17.5150 85.1999 TC 45 17.3000 85.2000 3 5 354
1924319N11089 1924 51 NI BB NOT_NAMED 1924-11-18 06:00:00 TS 17.6164 85.1859 main 138 123 _________OP___ -1 17.7000 85.2000 TC 45 17.5328 85.1718 3 4 355
1924319N11089 1924 51 NI BB NOT_NAMED 1924-11-18 09:00:00 TS 17.8187 85.1537 main 123 99 _________PP___ -1 17.9000 85.1575 TC 45 17.7375 85.1498 3 4 350
1924319N11089 1924 51 NI BB NOT_NAMED 1924-11-18 12:00:00 TS 18.0117 85.1140 main 99 84 _________OP___ -1 18.1000 85.1000 TC 45 17.9234 85.1280 3 4 348
1924319N11089 1924 51 NI BB NOT_NAMED 1924-11-18 15:00:00 TS 18.2038 85.0750 main 84 61 _________PO___ -1 18.3075 85.0500 TC 41 18.1000 85.1000 3 4 347
1924319N11089 1924 51 NI BB NOT_NAMED 1924-11-18 18:00:00 TS 18.3714 85.0349 main 61 53 _________OP___ -1 18.5000 85.0000 TC 37 18.2750 85.0610 3 3 346
1924319N11089 1924 51 NI BB NOT_NAMED 1924-11-18 21:00:00 TS 18.5340 84.9876 main 53 33 _________PP___ -1 18.6600 84.9500 TC 33 18.4500 85.0127 3 3 344
1924319N11089 1924 51 NI BB NOT_NAMED 1924-11-19 00:00:00 TS 18.6834 84.9386 main 33 30 _________OP___ -1 18.8000 84.9000 TC 30 18.6250 84.9579 3 3 344
1924319N11089 1924 51 NI BB NOT_NAMED 1924-11-19 03:00:00 NR 18.8000 84.9000 main 30 __________O___ -1 TC 18.8000 84.9000 1 2 339

About IBTrACS Database

This database is a web-friendly format of International Best Track Archive for Climate Stewardship (IBTrACS), a global best track data archive curated by NOAA dating back to 1842.

Updated: 2021-11-26